createdAt,value
2019-02-12T00:01:19.163Z,3.45
2019-02-12T00:04:23.614Z,3.55
2019-02-12T00:07:28.054Z,3.74
2019-02-12T00:10:32.497Z,3.68
2019-02-12T00:13:36.923Z,3.40
2019-02-12T00:16:41.681Z,3.29
2019-02-12T00:19:46.414Z,3.26
2019-02-12T00:22:50.838Z,3.34
2019-02-12T00:25:55.274Z,3.33
2019-02-12T00:28:59.709Z,3.24
2019-02-12T00:32:04.414Z,3.23
2019-02-12T00:35:09.262Z,3.23
2019-02-12T00:38:13.701Z,3.19
2019-02-12T00:41:18.139Z,3.16
2019-02-12T00:44:22.579Z,3.27
2019-02-12T00:47:27.005Z,3.40
2019-02-12T00:50:31.442Z,3.45
2019-02-12T00:53:35.874Z,3.54
2019-02-12T00:56:40.629Z,3.65
2019-02-12T00:59:45.065Z,3.77
2019-02-12T01:02:49.493Z,3.84
2019-02-12T01:05:53.930Z,4.06
2019-02-12T01:08:58.391Z,3.97
2019-02-12T01:12:02.886Z,3.92
2019-02-12T01:15:12.129Z,3.89
2019-02-12T01:18:16.559Z,4.03
2019-02-12T01:21:26.019Z,4.24
2019-02-12T01:24:27.160Z,4.20
2019-02-12T01:27:31.925Z,4.20
2019-02-12T01:30:36.658Z,4.29
2019-02-12T01:33:41.384Z,4.23
2019-02-12T01:36:45.822Z,4.17
2019-02-12T01:39:50.541Z,4.09
2019-02-12T01:42:55.273Z,4.05
2019-02-12T01:45:59.710Z,4.12
2019-02-12T01:49:04.150Z,4.14
2019-02-12T01:52:08.856Z,3.95
2019-02-12T01:55:13.591Z,3.71
2019-02-12T01:58:18.413Z,3.52
2019-02-12T02:01:23.150Z,3.38
2019-02-12T02:04:27.574Z,3.17
2019-02-12T02:07:32.014Z,3.03
2019-02-12T02:10:36.445Z,3.00
2019-02-12T02:13:41.250Z,3.08
2019-02-12T02:16:45.681Z,2.98
2019-02-12T02:19:50.128Z,3.02
2019-02-12T02:22:54.560Z,2.95
2019-02-12T02:25:58.996Z,2.97
2019-02-12T02:29:03.426Z,2.94
2019-02-12T02:32:08.202Z,2.94
2019-02-12T02:35:12.991Z,2.98
2019-02-12T02:38:17.761Z,3.03
2019-02-12T02:41:22.212Z,3.06
2019-02-12T02:44:26.641Z,3.07
2019-02-12T02:47:31.082Z,3.07
2019-02-12T02:50:35.518Z,3.26
2019-02-12T02:53:39.955Z,3.35
2019-02-12T02:56:44.390Z,3.43
2019-02-12T02:59:48.821Z,3.27
2019-02-12T03:02:53.571Z,3.24
2019-02-12T03:05:58.003Z,3.33
2019-02-12T03:09:03.607Z,3.50
2019-02-12T03:12:08.480Z,3.51
2019-02-12T03:15:12.919Z,3.57
2019-02-12T03:18:17.351Z,3.70
2019-02-12T03:21:21.792Z,3.91
2019-02-12T03:24:26.229Z,3.67
2019-02-12T03:27:30.669Z,3.59
2019-02-12T03:30:35.433Z,3.53
2019-02-12T03:33:40.152Z,3.36
2019-02-12T03:36:44.588Z,3.35
2019-02-12T03:39:49.019Z,3.48
2019-02-12T03:42:53.500Z,3.50
2019-02-12T03:45:57.900Z,3.51
2019-02-12T03:49:02.333Z,3.53
2019-02-12T03:52:12.928Z,3.51
2019-02-12T03:55:14.801Z,3.55
2019-02-12T03:58:19.237Z,3.42
2019-02-12T04:01:24.365Z,3.36
2019-02-12T04:04:28.797Z,3.42
2019-02-12T04:07:33.229Z,3.46
2019-02-12T04:10:37.966Z,3.45
2019-02-12T04:13:42.687Z,3.42
2019-02-12T04:16:47.403Z,3.60
2019-02-12T04:19:51.834Z,3.56
2019-02-12T04:22:56.668Z,3.63
2019-02-12T04:26:01.393Z,3.57
2019-02-12T04:29:06.128Z,3.63
2019-02-12T04:32:10.566Z,3.63
2019-02-12T04:35:14.990Z,3.77
2019-02-12T04:38:19.431Z,3.75
2019-02-12T04:41:23.867Z,3.68
2019-02-12T04:44:28.301Z,3.73
2019-02-12T04:47:32.741Z,3.66
2019-02-12T04:50:37.164Z,3.63
2019-02-12T04:53:41.600Z,3.57
2019-02-12T04:56:46.035Z,3.63
2019-02-12T04:59:50.472Z,3.66
2019-02-12T05:02:54.909Z,3.68
2019-02-12T05:05:59.617Z,3.55
2019-02-12T05:09:13.462Z,3.43
2019-02-12T05:12:19.443Z,3.35
2019-02-12T05:15:23.864Z,3.31
2019-02-12T05:18:28.309Z,3.33
2019-02-12T05:21:32.742Z,3.45
2019-02-12T05:24:37.537Z,3.43
2019-02-12T05:27:41.969Z,3.38
2019-02-12T05:30:46.683Z,3.52
2019-02-12T05:33:51.411Z,3.44
2019-02-12T05:36:56.138Z,3.44
2019-02-12T05:40:00.579Z,3.48
2019-02-12T05:43:05.297Z,3.50
2019-02-12T05:46:09.723Z,3.44
2019-02-12T05:49:14.159Z,3.37
2019-02-12T05:52:18.873Z,3.48
2019-02-12T05:55:23.608Z,3.43
2019-02-12T05:58:28.330Z,3.46
2019-02-12T06:01:33.075Z,3.43
2019-02-12T06:04:37.521Z,3.50
2019-02-12T06:07:41.953Z,3.44
2019-02-12T06:10:46.388Z,3.51
2019-02-12T06:13:50.831Z,3.55
2019-02-12T06:16:55.270Z,3.79
2019-02-12T06:19:59.716Z,3.73
2019-02-12T06:23:04.402Z,3.81
2019-02-12T06:26:08.868Z,3.64
2019-02-12T06:29:13.311Z,3.74
2019-02-12T06:32:17.739Z,3.66
2019-02-12T06:35:22.442Z,3.54
2019-02-12T06:38:28.529Z,3.42
2019-02-12T06:41:32.966Z,3.36
2019-02-12T06:44:37.410Z,3.25
2019-02-12T06:47:42.182Z,3.38
2019-02-12T06:50:46.621Z,3.41
2019-02-12T06:53:51.068Z,3.38
2019-02-12T06:56:55.495Z,3.46
2019-02-12T06:59:59.942Z,3.59
2019-02-12T07:03:19.753Z,3.55
2019-02-12T07:06:34.936Z,3.48
2019-02-12T07:09:43.254Z,3.50
2019-02-12T07:13:03.232Z,3.46
2019-02-12T07:16:15.398Z,3.48
2019-02-12T07:19:39.631Z,3.43
2019-02-12T07:23:10.377Z,3.48
2019-02-12T07:26:57.311Z,3.47
2019-02-12T07:30:30.807Z,3.64
2019-02-12T07:34:04.110Z,3.74
2019-02-12T07:37:28.175Z,3.74
2019-02-12T07:40:51.824Z,3.75
2019-02-12T07:44:06.953Z,3.79
2019-02-12T07:47:24.697Z,3.87
2019-02-12T07:50:48.539Z,3.84
2019-02-12T07:54:12.827Z,3.87
2019-02-12T07:57:30.915Z,3.89
2019-02-12T08:00:54.489Z,4.01
2019-02-12T08:04:12.779Z,4.14
2019-02-12T08:07:36.887Z,4.34
2019-02-12T08:11:03.845Z,4.42
2019-02-12T08:14:18.617Z,4.49
2019-02-12T08:17:39.799Z,4.69
2019-02-12T08:21:06.470Z,4.85
2019-02-12T08:24:36.906Z,5.04
2019-02-12T08:28:05.468Z,4.93
2019-02-12T08:31:36.135Z,5.12
2019-02-12T08:35:09.125Z,5.20
2019-02-12T08:38:40.808Z,5.45
2019-02-12T08:42:15.772Z,5.22
2019-02-12T08:45:30.366Z,5.20
2019-02-12T08:48:54.237Z,5.13
2019-02-12T08:52:51.386Z,5.28
2019-02-12T08:56:38.229Z,5.33
2019-02-12T08:59:50.458Z,5.21
2019-02-12T09:03:23.712Z,5.33
2019-02-12T09:06:56.242Z,5.10
2019-02-12T09:10:27.502Z,5.14
2019-02-12T09:13:45.728Z,5.11
2019-02-12T09:17:15.841Z,5.07
2019-02-12T09:20:44.579Z,5.37
2019-02-12T09:24:16.822Z,5.35
2019-02-12T09:27:44.203Z,5.34
2019-02-12T09:31:14.718Z,5.56
2019-02-12T09:34:24.158Z,5.72
2019-02-12T09:37:57.362Z,5.91
2019-02-12T09:41:21.859Z,6.09
2019-02-12T09:44:45.937Z,5.93
2019-02-12T09:48:22.515Z,6.03
2019-02-12T09:51:40.359Z,6.13
2019-02-12T09:55:07.405Z,6.35
2019-02-12T09:58:19.307Z,7.41
2019-02-12T10:02:21.396Z,8.21
2019-02-12T10:05:36.551Z,8.95
2019-02-12T10:08:57.273Z,10.07
2019-02-12T10:12:21.543Z,10.45
2019-02-12T10:15:36.629Z,10.51
2019-02-12T10:19:12.707Z,10.98
2019-02-12T10:22:46.104Z,11.54
2019-02-12T10:25:55.105Z,11.32
2019-02-12T10:29:29.867Z,10.44
2019-02-12T10:32:32.737Z,10.10
2019-02-12T10:35:37.486Z,10.03
2019-02-12T10:38:42.317Z,9.54
2019-02-12T10:41:46.814Z,8.54
2019-02-12T10:44:51.567Z,8.41
2019-02-12T10:47:56.021Z,8.12
2019-02-12T10:51:00.442Z,7.82
2019-02-12T10:54:04.881Z,7.27
2019-02-12T10:57:09.307Z,7.46
2019-02-12T11:00:14.881Z,7.12
2019-02-12T11:03:19.656Z,7.27
2019-02-12T11:06:24.380Z,7.60
2019-02-12T11:09:28.812Z,7.35
2019-02-12T11:12:33.258Z,7.43
2019-02-12T11:15:37.965Z,7.46
2019-02-12T11:18:42.417Z,7.29
2019-02-12T11:21:46.837Z,7.17
2019-02-12T11:24:51.268Z,7.07
2019-02-12T11:27:56.158Z,6.95
2019-02-12T11:31:00.591Z,6.85
2019-02-12T11:34:05.026Z,6.98
2019-02-12T11:37:09.739Z,7.47
2019-02-12T11:40:14.440Z,7.81
2019-02-12T11:43:19.508Z,7.80
2019-02-12T11:46:24.240Z,8.39
2019-02-12T11:49:28.680Z,8.92
2019-02-12T11:52:33.115Z,8.51
2019-02-12T11:55:37.567Z,8.36
2019-02-12T11:58:42.238Z,8.60
2019-02-12T12:01:46.661Z,8.40
2019-02-12T12:04:51.392Z,8.19
2019-02-12T12:07:56.124Z,8.18
2019-02-12T12:11:00.561Z,8.25
2019-02-12T12:14:04.995Z,8.37
2019-02-12T12:17:09.807Z,8.49
2019-02-12T12:20:15.546Z,8.61
2019-02-12T12:23:20.289Z,8.88
2019-02-12T12:26:25.020Z,8.63
2019-02-12T12:29:29.754Z,8.84
2019-02-12T12:32:34.519Z,8.85
2019-02-12T12:35:39.210Z,9.05
2019-02-12T12:38:43.820Z,8.83
2019-02-12T12:41:48.323Z,8.68
2019-02-12T12:44:53.105Z,8.46
2019-02-12T12:47:57.548Z,7.89
2019-02-12T12:51:02.246Z,7.83
2019-02-12T12:54:06.720Z,7.64
2019-02-12T12:57:11.403Z,7.30
2019-02-12T13:00:17.544Z,7.53
2019-02-12T13:03:22.054Z,7.87
2019-02-12T13:06:26.618Z,7.93
2019-02-12T13:09:31.120Z,7.94
2019-02-12T13:12:35.985Z,7.88
2019-02-12T13:15:40.767Z,7.98
2019-02-12T13:18:45.562Z,8.03
2019-02-12T13:21:55.010Z,8.17
2019-02-12T13:25:07.992Z,8.13
2019-02-12T13:28:07.424Z,7.97
2019-02-12T13:31:12.257Z,7.82
2019-02-12T13:34:16.709Z,7.64
2019-02-12T13:37:21.227Z,7.98
2019-02-12T13:40:25.949Z,8.26
2019-02-12T13:43:30.688Z,8.19
2019-02-12T13:46:35.194Z,7.96
2019-02-12T13:49:39.933Z,7.72
2019-02-12T13:52:44.670Z,7.72
2019-02-12T13:55:49.390Z,7.51
2019-02-12T13:58:53.822Z,7.48
2019-02-12T14:01:58.573Z,7.37
2019-02-12T14:05:03.891Z,7.43
2019-02-12T14:08:08.657Z,7.39
2019-02-12T14:11:13.450Z,7.43
2019-02-12T14:14:19.521Z,7.51
2019-02-12T14:17:24.444Z,7.46
2019-02-12T14:20:29.276Z,7.34
2019-02-12T14:23:34.012Z,7.25
2019-02-12T14:26:38.619Z,7.15
2019-02-12T14:29:43.365Z,7.19
2019-02-12T14:32:48.100Z,6.96
2019-02-12T14:35:52.592Z,7.02
2019-02-12T14:38:57.033Z,6.87
2019-02-12T14:42:01.786Z,6.93
2019-02-12T14:45:10.730Z,6.83
2019-02-12T14:48:15.437Z,7.06
2019-02-12T14:51:19.879Z,7.10
2019-02-12T14:54:24.369Z,7.03
2019-02-12T14:57:29.116Z,6.88
2019-02-12T15:00:33.860Z,6.80
2019-02-12T15:03:38.301Z,6.88
2019-02-12T15:06:42.751Z,7.04
2019-02-12T15:09:47.634Z,6.92
2019-02-12T15:12:52.127Z,6.84
2019-02-12T15:15:56.886Z,6.93
2019-02-12T15:19:01.621Z,6.94
2019-02-12T15:22:06.052Z,6.95
2019-02-12T15:25:12.299Z,6.91
2019-02-12T15:28:16.732Z,6.95
2019-02-12T15:31:21.462Z,6.85
2019-02-12T15:34:26.193Z,6.76
2019-02-12T15:37:30.640Z,6.74
2019-02-12T15:40:35.345Z,6.67
2019-02-12T15:43:40.488Z,6.46
2019-02-12T15:46:44.923Z,6.42
2019-02-12T15:49:49.642Z,6.27
2019-02-12T15:52:54.374Z,6.10
2019-02-12T15:55:58.814Z,6.18
2019-02-12T15:59:03.528Z,6.25
2019-02-12T16:02:09.493Z,6.46
2019-02-12T16:05:14.594Z,6.35
2019-02-12T16:08:19.382Z,6.29
2019-02-12T16:11:23.797Z,6.25
2019-02-12T16:14:28.239Z,6.38
2019-02-12T16:17:32.686Z,6.27
2019-02-12T16:20:37.482Z,6.28
2019-02-12T16:23:42.191Z,6.05
2019-02-12T16:26:46.623Z,5.89
2019-02-12T16:29:51.347Z,5.77
2019-02-12T16:32:55.779Z,5.86
2019-02-12T16:36:00.500Z,5.84
2019-02-12T16:39:06.769Z,5.75
2019-02-12T16:42:11.212Z,5.65
2019-02-12T16:45:22.941Z,5.48
2019-02-12T16:48:27.404Z,5.46
2019-02-12T16:51:31.848Z,5.34
2019-02-12T16:54:36.284Z,5.34
2019-02-12T16:57:40.994Z,5.15
2019-02-12T17:00:45.438Z,5.22
2019-02-12T17:03:50.144Z,5.17
2019-02-12T17:06:54.578Z,5.08
2019-02-12T17:09:59.018Z,4.93
2019-02-12T17:13:03.722Z,4.87
2019-02-12T17:16:08.962Z,4.89
2019-02-12T17:19:13.390Z,4.79
2019-02-12T17:22:18.175Z,4.74
2019-02-12T17:25:22.624Z,4.77
2019-02-12T17:28:27.380Z,4.58
2019-02-12T17:31:32.106Z,4.58
2019-02-12T17:34:36.545Z,4.57
2019-02-12T17:37:41.267Z,4.52
2019-02-12T17:40:45.708Z,4.59
2019-02-12T17:43:50.150Z,4.38
2019-02-12T17:46:54.609Z,4.33
2019-02-12T17:49:59.327Z,4.22
2019-02-12T17:53:03.827Z,4.24
2019-02-12T17:56:08.274Z,4.42
2019-02-12T17:59:12.723Z,4.18
2019-02-12T18:02:17.478Z,3.98
2019-02-12T18:05:22.308Z,3.99
2019-02-12T18:08:26.741Z,4.13
2019-02-12T18:11:31.186Z,3.99
2019-02-12T18:14:35.625Z,3.98
2019-02-12T18:17:40.059Z,4.19
2019-02-12T18:20:44.494Z,4.35
2019-02-12T18:23:48.933Z,4.25
2019-02-12T18:26:53.681Z,4.27
2019-02-12T18:29:58.518Z,4.36
2019-02-12T18:33:03.265Z,4.31
2019-02-12T18:36:07.704Z,4.12
2019-02-12T18:39:12.146Z,4.05
2019-02-12T18:42:16.826Z,3.99
2019-02-12T18:45:27.055Z,3.94
2019-02-12T18:48:31.484Z,4.16
2019-02-12T18:51:35.925Z,4.10
2019-02-12T18:54:40.366Z,4.06
2019-02-12T18:57:44.796Z,4.04
2019-02-12T19:00:49.240Z,4.05
2019-02-12T19:03:54.266Z,4.22
2019-02-12T19:06:58.970Z,4.23
2019-02-12T19:10:04.446Z,4.21
2019-02-12T19:13:09.153Z,4.19
2019-02-12T19:16:13.664Z,4.28
2019-02-12T19:19:18.420Z,4.26
2019-02-12T19:22:23.164Z,4.24
2019-02-12T19:25:27.603Z,4.14
2019-02-12T19:28:32.296Z,4.22
2019-02-12T19:31:36.734Z,4.29
2019-02-12T19:34:41.449Z,4.23
2019-02-12T19:37:46.179Z,4.14
2019-02-12T19:40:50.918Z,4.07
2019-02-12T19:43:55.643Z,4.00
2019-02-12T19:47:00.375Z,3.98
2019-02-12T19:50:06.520Z,4.05
2019-02-12T19:53:11.264Z,4.21
2019-02-12T19:56:16.019Z,4.11
2019-02-12T19:59:20.442Z,4.11
2019-02-12T20:02:25.166Z,4.04
2019-02-12T20:05:29.602Z,4.02
2019-02-12T20:08:35.948Z,4.06
2019-02-12T20:11:40.400Z,4.20
2019-02-12T20:14:45.211Z,4.13
2019-02-12T20:17:53.272Z,4.10
2019-02-12T20:20:57.385Z,4.04
2019-02-12T20:24:02.163Z,4.17
2019-02-12T20:27:06.990Z,4.21
2019-02-12T20:30:17.466Z,4.19
2019-02-12T20:33:21.903Z,4.17
2019-02-12T20:36:26.351Z,4.15
2019-02-12T20:39:31.088Z,3.97
2019-02-12T20:42:36.800Z,3.89
2019-02-12T20:45:42.110Z,3.85
2019-02-12T20:48:46.545Z,3.75
2019-02-12T20:51:52.578Z,3.78
2019-02-12T20:54:56.951Z,3.81
2019-02-12T20:58:01.681Z,3.80
2019-02-12T21:01:06.130Z,3.81
2019-02-12T21:04:10.563Z,3.72
2019-02-12T21:07:15.353Z,3.71
2019-02-12T21:10:22.859Z,3.78
2019-02-12T21:13:27.329Z,3.78
2019-02-12T21:16:32.216Z,3.51
2019-02-12T21:19:36.657Z,3.09
2019-02-12T21:22:42.184Z,3.16
2019-02-12T21:25:46.620Z,3.47
2019-02-12T21:28:51.059Z,3.70
2019-02-12T21:31:55.560Z,3.74
2019-02-12T21:35:00.294Z,3.77
2019-02-12T21:38:06.209Z,3.73
2019-02-12T21:41:11.458Z,3.68
2019-02-12T21:44:21.011Z,3.51
2019-02-12T21:47:28.590Z,3.47
2019-02-12T21:50:33.004Z,3.40
2019-02-12T21:53:37.452Z,3.06
2019-02-12T21:56:44.831Z,3.01
2019-02-12T21:59:51.412Z,3.15
2019-02-12T22:02:56.093Z,3.28
2019-02-12T22:06:01.762Z,3.34
2019-02-12T22:09:07.185Z,3.21
2019-02-12T22:12:11.817Z,3.14
2019-02-12T22:15:16.782Z,3.19
2019-02-12T22:18:21.230Z,3.52
2019-02-12T22:21:25.670Z,3.43
2019-02-12T22:24:30.114Z,3.40
2019-02-12T22:27:40.136Z,3.53
2019-02-12T22:30:40.714Z,3.52
2019-02-12T22:33:45.542Z,3.33
2019-02-12T22:36:50.269Z,2.97
2019-02-12T22:39:55.187Z,2.98
2019-02-12T22:42:59.597Z,2.70
2019-02-12T22:46:04.141Z,2.67
2019-02-12T22:49:08.875Z,2.79
2019-02-12T22:52:13.610Z,2.81
2019-02-12T22:55:18.340Z,2.69
2019-02-12T22:58:23.069Z,2.58
2019-02-12T23:01:32.003Z,2.37
2019-02-12T23:04:41.411Z,2.18
2019-02-12T23:07:46.883Z,2.16
2019-02-12T23:11:02.972Z,2.04
2019-02-12T23:14:08.204Z,2.03
2019-02-12T23:17:15.602Z,1.66
2019-02-12T23:20:20.405Z,1.65
2019-02-12T23:23:24.999Z,1.66
2019-02-12T23:26:31.299Z,1.84
2019-02-12T23:29:38.973Z,1.98
2019-02-12T23:32:44.215Z,1.77
2019-02-12T23:35:48.944Z,1.89
2019-02-12T23:38:54.015Z,1.60
2019-02-12T23:41:58.397Z,1.45
2019-02-12T23:45:03.606Z,1.41
2019-02-12T23:48:12.725Z,1.48
2019-02-12T23:51:17.940Z,1.54
2019-02-12T23:54:22.501Z,1.46
2019-02-12T23:57:27.492Z,1.65
